createdAt,value
2022-08-04T00:00:00.752Z,27.96
2022-08-04T00:05:32.385Z,27.86
2022-08-04T00:11:04.282Z,27.72
2022-08-04T00:16:37.967Z,27.7
2022-08-04T00:22:07.572Z,27.6
2022-08-04T00:27:39.246Z,27.48
2022-08-04T00:33:11.280Z,27.33
2022-08-04T00:38:42.663Z,27.11
2022-08-04T00:44:23.129Z,27.01
2022-08-04T00:49:50.534Z,26.89
2022-08-04T00:55:22.290Z,26.96
2022-08-04T01:00:54.008Z,26.92
2022-08-04T01:06:25.971Z,26.94
2022-08-04T01:11:58.007Z,26.9
2022-08-04T01:17:29.104Z,26.73
2022-08-04T01:23:00.847Z,26.54
2022-08-04T01:28:32.602Z,26.41
2022-08-04T01:34:04.738Z,26.39
2022-08-04T01:39:36.262Z,26.37
2022-08-04T01:45:12.154Z,26.44
2022-08-04T01:50:43.810Z,26.6
2022-08-04T01:56:15.606Z,26.69
2022-08-04T02:01:47.599Z,26.57
2022-08-04T02:07:19.032Z,26.36
2022-08-04T02:12:50.717Z,26.38
2022-08-04T02:18:22.419Z,26.17
2022-08-04T02:23:54.172Z,26.36
2022-08-04T02:29:29.270Z,26.41
2022-08-04T02:34:57.610Z,26.36
2022-08-04T02:40:29.391Z,26.21
2022-08-04T02:46:05.473Z,26.1
2022-08-04T02:51:37.125Z,26.07
2022-08-04T02:57:08.853Z,25.96
2022-08-04T03:02:40.562Z,25.86
2022-08-04T03:08:12.302Z,25.69
2022-08-04T03:13:44.030Z,25.66
2022-08-04T03:19:15.958Z,25.61
2022-08-04T03:24:47.440Z,25.56
2022-08-04T03:30:19.134Z,25.47
2022-08-04T03:35:51.014Z,25.44
2022-08-04T03:41:51.122Z,25.45
2022-08-04T03:46:58.717Z,25.42
2022-08-04T03:52:30.433Z,25.44
2022-08-04T03:58:02.169Z,25.4
2022-08-04T04:03:33.922Z,25.44
2022-08-04T04:09:07.993Z,25.47
2022-08-04T04:14:37.322Z,25.43
2022-08-04T04:20:09.023Z,25.35
2022-08-04T04:25:40.761Z,25.37
2022-08-04T04:31:12.471Z,25.25
2022-08-04T04:36:44.298Z,25.33
2022-08-04T04:42:15.993Z,25.41
2022-08-04T04:48:09.292Z,25.09
2022-08-04T04:53:23.830Z,25.11
2022-08-04T04:58:55.485Z,25.22
2022-08-04T05:04:27.241Z,25.24
2022-08-04T05:09:59.137Z,25.14
2022-08-04T05:15:30.814Z,25.37
2022-08-04T05:21:02.446Z,25.33
2022-08-04T05:26:34.119Z,25.55
2022-08-04T05:32:05.977Z,25.63
2022-08-04T05:37:37.662Z,25.87
2022-08-04T05:43:09.373Z,25.99
2022-08-04T05:48:45.435Z,26.1
2022-08-04T05:54:17.239Z,26.14
2022-08-04T05:59:49.234Z,26.32
2022-08-04T06:05:20.616Z,26.57
2022-08-04T06:10:52.277Z,26.79
2022-08-04T06:16:28.685Z,27.01
2022-08-04T06:21:55.833Z,26.93
2022-08-04T06:27:27.538Z,27.14
2022-08-04T06:33:03.207Z,27.37
2022-08-04T06:38:30.914Z,27.81
2022-08-04T06:44:02.644Z,28.17
2022-08-04T06:49:44.066Z,28.01
2022-08-04T06:51:24.165Z,28.01
2022-08-04T06:55:10.521Z,28.18
2022-08-04T07:00:42.213Z,28.5
2022-08-04T07:06:14.157Z,28.77
2022-08-04T07:11:45.718Z,29.01
2022-08-04T07:17:17.457Z,29.16
2022-08-04T07:22:49.120Z,29.35
2022-08-04T07:28:20.867Z,29.94
2022-08-04T07:34:11.409Z,29.97
2022-08-04T07:39:27.887Z,30.4
2022-08-04T07:44:56.094Z,30.82
2022-08-04T07:50:32.131Z,31.17
2022-08-04T07:56:03.841Z,31.61
2022-08-04T08:01:35.636Z,31.18
2022-08-04T08:07:07.530Z,32.1
2022-08-04T08:12:50.536Z,31.9
2022-08-04T08:18:10.727Z,32.44
2022-08-04T08:23:42.452Z,32.09
2022-08-04T08:29:14.203Z,32.65
2022-08-04T08:34:45.903Z,32.86
2022-08-04T08:40:17.634Z,32.88
2022-08-04T08:45:49.324Z,33.41
2022-08-04T08:51:27.471Z,33.09
2022-08-04T08:56:59.225Z,33.85
2022-08-04T09:02:30.915Z,33.89
2022-08-04T09:08:02.660Z,34.4
2022-08-04T09:13:34.369Z,34.59
2022-08-04T09:19:06.274Z,34.93
2022-08-04T09:24:37.807Z,34.96
2022-08-04T09:30:09.589Z,35.04
2022-08-04T09:35:41.310Z,35.43
2022-08-04T09:41:19.831Z,35.34
2022-08-04T09:46:44.794Z,35.76
2022-08-04T09:52:21.046Z,35.81
2022-08-04T09:57:52.607Z,36.04
2022-08-04T10:03:24.456Z,36.42
2022-08-04T10:08:57.219Z,36.49
2022-08-04T10:14:27.751Z,36.43
2022-08-04T10:19:59.489Z,36.4
2022-08-04T10:25:37.916Z,37.07
2022-08-04T10:31:03.224Z,36.92
2022-08-04T10:36:34.681Z,36.84
2022-08-04T10:42:06.514Z,37.21
2022-08-04T10:47:38.220Z,36.97
2022-08-04T10:53:16.239Z,37.23
2022-08-04T10:58:48.904Z,37.57
2022-08-04T11:04:26.771Z,37.66
2022-08-04T11:09:51.425Z,37.61
2022-08-04T11:15:23.231Z,37.36
2022-08-04T11:20:54.936Z,37.75
2022-08-04T11:26:26.598Z,37.55
2022-08-04T11:31:58.377Z,37.46
2022-08-04T11:37:30.118Z,38.6
2022-08-04T11:43:01.807Z,38.6
2022-08-04T11:48:33.598Z,38.32
2022-08-04T11:54:09.680Z,38.01
2022-08-04T11:59:41.413Z,38.54
2022-08-04T12:05:23.383Z,38.45
2022-08-04T12:10:45.037Z,39.07
2022-08-04T12:16:16.665Z,38.91
2022-08-04T12:21:50.496Z,38.71
2022-08-04T12:27:20.278Z,38.47
2022-08-04T12:32:53.621Z,38.58
2022-08-04T12:38:23.551Z,38.89
2022-08-04T12:43:56.048Z,38.66
2022-08-04T12:49:27.781Z,38.61
2022-08-04T12:55:05.885Z,38.69
2022-08-04T13:00:40.492Z,38.7
2022-08-04T13:06:09.394Z,38.51
2022-08-04T13:11:41.062Z,38.74
2022-08-04T13:17:12.780Z,38.56
2022-08-04T13:22:46.423Z,38.63
2022-08-04T13:28:16.310Z,38.35
2022-08-04T13:33:47.989Z,38.64
2022-08-04T13:39:19.783Z,38.73
2022-08-04T13:44:51.414Z,38.54
2022-08-04T13:50:23.138Z,38.92
2022-08-04T13:56:00.331Z,38.81
2022-08-04T14:01:35.476Z,39.21
2022-08-04T14:07:02.701Z,38.96
2022-08-04T14:12:39.231Z,38.75
2022-08-04T14:18:06.216Z,38.86
2022-08-04T14:23:37.961Z,39.29
2022-08-04T14:29:26.076Z,39.34
2022-08-04T14:34:41.695Z,39.29
2022-08-04T14:40:19.461Z,39.57
2022-08-04T14:45:54.492Z,39.73
2022-08-04T14:51:16.581Z,39.57
2022-08-04T14:56:54.704Z,39.56
2022-08-04T15:02:29.515Z,39.27
2022-08-04T15:07:58.149Z,39.46
2022-08-04T15:13:29.881Z,39.38
2022-08-04T15:19:01.574Z,39.23
2022-08-04T15:24:33.293Z,39.26
2022-08-04T15:30:05.218Z,39.06
2022-08-04T15:35:38.685Z,38.52
2022-08-04T15:41:08.467Z,38.84
2022-08-04T15:46:42.204Z,39.04
2022-08-04T15:52:12.735Z,38.79
2022-08-04T15:57:48.061Z,38.65
2022-08-04T16:03:19.791Z,38.64
2022-08-04T16:08:52.036Z,38.89
2022-08-04T16:14:23.282Z,38.81
2022-08-04T16:19:55.029Z,38.74
2022-08-04T16:25:26.887Z,38.49
2022-08-04T16:30:58.439Z,38.55
2022-08-04T16:36:30.150Z,38.42
2022-08-04T16:42:01.867Z,38.48
2022-08-04T16:47:33.699Z,38.22
2022-08-04T16:53:05.467Z,38.29
2022-08-04T16:58:50.229Z,38.2
2022-08-04T17:04:13.132Z,37.95
2022-08-04T17:09:44.910Z,37.95
2022-08-04T17:15:16.663Z,37.9
2022-08-04T17:20:59.269Z,37.78
2022-08-04T17:26:20.098Z,37.82
2022-08-04T17:31:53.263Z,37.85
2022-08-04T17:37:38.708Z,37.74
2022-08-04T17:42:55.510Z,37.58
2022-08-04T17:48:27.037Z,37.37
2022-08-04T17:54:02.001Z,37.32
2022-08-04T17:59:48.238Z,37.11
2022-08-04T18:05:11.277Z,36.91
2022-08-04T18:10:44.845Z,36.68
2022-08-04T18:16:14.814Z,36.47
2022-08-04T18:22:42.141Z,36.25
2022-08-04T18:27:14.532Z,36.05
2022-08-04T18:33:10.373Z,35.85
2022-08-04T18:38:22.933Z,35.67
2022-08-04T18:43:55.498Z,35.45
2022-08-04T18:50:32.097Z,35.22
2022-08-04T18:50:32.405Z,35.22
2022-08-04T18:54:52.125Z,34.97
2022-08-04T19:00:28.206Z,34.74
2022-08-04T19:05:59.918Z,34.51
2022-08-04T19:11:37.592Z,34.3
2022-08-04T19:17:03.403Z,34.14
2022-08-04T19:22:35.393Z,33.97
2022-08-04T19:28:06.877Z,33.79
2022-08-04T19:33:55.816Z,33.67
2022-08-04T19:39:11.745Z,33.5
2022-08-04T19:44:43.896Z,33.35
2022-08-04T19:50:13.765Z,33.31
2022-08-04T19:55:49.403Z,33.21
2022-08-04T20:01:28.670Z,33.16
2022-08-04T20:06:53.354Z,33.12
2022-08-04T20:12:25.039Z,33.05
2022-08-04T20:18:07.228Z,33.0
2022-08-04T20:23:28.802Z,32.9
2022-08-04T20:29:00.190Z,32.64
2022-08-04T20:34:31.885Z,32.39
2022-08-04T20:40:03.633Z,32.31
2022-08-04T20:45:56.133Z,32.22
2022-08-04T20:51:07.101Z,32.12
2022-08-04T20:56:39.774Z,32.02
2022-08-04T21:02:16.368Z,31.89
2022-08-04T21:07:48.816Z,31.79
2022-08-04T21:13:19.257Z,31.71
2022-08-04T21:18:50.997Z,31.73
2022-08-04T21:24:24.061Z,31.76
2022-08-04T21:29:54.431Z,31.69
2022-08-04T21:35:30.182Z,31.57
2022-08-04T21:40:58.912Z,31.3
2022-08-04T21:46:30.709Z,31.11
2022-08-04T21:52:02.054Z,30.93
2022-08-04T21:57:33.786Z,30.81
2022-08-04T22:03:23.495Z,30.76
2022-08-04T22:08:43.624Z,30.68
2022-08-04T22:14:15.340Z,30.65
2022-08-04T22:19:54.726Z,30.55
2022-08-04T22:25:18.954Z,30.38
2022-08-04T22:30:51.949Z,30.17
2022-08-04T22:36:22.214Z,30.1
2022-08-04T22:42:02.953Z,30.1
2022-08-04T22:47:25.846Z,30.03
2022-08-04T22:52:57.359Z,29.79
2022-08-04T22:58:29.074Z,29.7
2022-08-04T23:04:05.191Z,29.58
2022-08-04T23:09:49.690Z,29.48
2022-08-04T23:15:08.749Z,29.28
2022-08-04T23:20:40.447Z,29.31
2022-08-04T23:26:12.110Z,29.27
2022-08-04T23:31:59.309Z,29.19
2022-08-04T23:37:15.755Z,29.17
2022-08-04T23:42:47.487Z,29.04
2022-08-04T23:48:21.142Z,28.93
2022-08-04T23:54:02.680Z,28.79
2022-08-04T23:59:36.074Z,28.66
